Boudicca — C6VA3 — position and weather

sailwx.info

Track history (hours):
 
Tides and Currents Weather Stations Pressure Air Temp Water Temp Dewpoint Dewpoint Depression Visibility Wind Speed Wind Dir Waves Ship Positions

Boudicca

Last reported at 2018-Jun-23 20:59 UTC. Time now 2018-Jun-23 21:04 UTC.
Position N 54°20' E 010°09'.

Length 205 m; draft 7.5 m.

Type: Passenger vessel. MMSI: 309964000.

Date/timePositionNaut miles runAvg speedWind from/ knotsBaromVisibWave heightAir tempDewpointWater temp
2018-Jun-23 20:59N 54°20' E 010°09'0 0.0
2018-Jun-23 20:29N 54°20' E 010°09'0 0.0
2018-Jun-23 19:59N 54°20' E 010°09'0 0.0
2018-Jun-23 19:23N 54°20' E 010°09'0 0.0
2018-Jun-23 18:59N 54°20' E 010°09'0 0.0
2018-Jun-23 18:29N 54°20' E 010°09'0 0.0
2018-Jun-23 17:59N 54°20' E 010°09'0 0.0
2018-Jun-23 17:23N 54°20' E 010°09'0 0.0
2018-Jun-23 16:56N 54°20' E 010°09'29 2.2
2018-Jun-23 03:33N 54°09' E 009°23'0 8.5
2018-Jun-23 03:30N 54°09' E 009°22'3 6.5
2018-Jun-23 03:00N 54°06' E 009°20'4 8.3
2018-Jun-23 02:30N 54°02' E 009°18'4 7.7
2018-Jun-23 02:00N 53°58' E 009°16'4 7.1
2018-Jun-23 01:30N 53°56' E 009°12'3 5.9
2018-Jun-23 01:00N 53°54' E 009°09'0 0.2
2018-Jun-23 00:30N 53°54' E 009°09'2 4.9
2018-Jun-23 00:00N 53°53' E 009°05'5 9.6
2018-Jun-22 23:30N 53°51' E 008°57'612.6
2018-Jun-22 23:00N 53°51' E 008°47'712.5
2018-Jun-22 22:27N 53°56' E 008°40'713.1
2018-Jun-22 21:54N 53°59' E 008°28'89 8.4
2018-Jun-22 11:16N 53°41' E 005°60'310.6
2018-Jun-22 11:00N 53°40' E 005°56'510.5
2018-Jun-22 10:30N 53°38' E 005°47'510.4
2018-Jun-22 10:00N 53°36' E 005°39'510.1
2018-Jun-22 09:30N 53°34' E 005°31'5 9.7
2018-Jun-22 09:00N 53°33' E 005°23'5 9.6
2018-Jun-22 08:30N 53°31' E 005°16'5 9.5
2018-Jun-22 08:00N 53°30' E 005°08'611.6
2018-Jun-22 07:30N 53°27' E 004°59'713.8
2018-Jun-22 07:01N 53°25' E 004°48'712.1
2018-Jun-22 06:26N 53°20' E 004°40'511.6
2018-Jun-22 06:00N 53°16' E 004°35'510.7
2018-Jun-22 05:30N 53°11' E 004°32'611.4
2018-Jun-22 05:00N 53°06' E 004°26'611.1
2018-Jun-22 04:30N 53°02' E 004°21'4 8.5
2018-Jun-22 04:00N 52°58' E 004°18'3 6.6
2018-Jun-22 03:30N 52°55' E 004°16'4 7.5
2018-Jun-22 03:00N 52°51' E 004°14'9 8.5
2018-Jun-22 01:59N 52°45' E 004°05'5 9.6
2018-Jun-22 01:30N 52°41' E 003°59'510.3
2018-Jun-22 01:00N 52°37' E 003°54'611.0
2018-Jun-22 00:29N 52°33' E 003°48'611.8
2018-Jun-22 00:00N 52°29' E 003°41'612.2
2018-Jun-21 23:30N 52°25' E 003°34'612.7
2018-Jun-21 23:00N 52°20' E 003°27'4415.3
2018-Jun-21 20:07N 51°47' E 002°40'217.5
2018-Jun-21 19:59N 51°45' E 002°37'817.4
2018-Jun-21 19:30N 51°40' E 002°27'917.1
2018-Jun-21 19:00N 51°34' E 002°17'816.8
2018-Jun-21 18:30N 51°27' E 002°08'816.9
2018-Jun-21 18:01N 51°21' E 001°60'816.8
2018-Jun-21 17:30N 51°15' E 001°51'816.3
2018-Jun-21 17:00N 51°09' E 001°42'714.7
2018-Jun-21 16:31N 51°08' E 001°30'612.6
2018-Jun-21 16:00N 51°06' E 001°21'1 1.7
2018-Jun-21 15:29N 51°07' E 001°19'0 0.0
2018-Jun-21 14:59N 51°07' E 001°19'0 0.0
2018-Jun-21 14:26N 51°07' E 001°19'0 0.0
2018-Jun-21 13:59N 51°07' E 001°19'0 0.0
2018-Jun-21 13:29N 51°07' E 001°19'0 0.0
2018-Jun-21 12:59N 51°07' E 001°19'0 0.0
2018-Jun-21 12:29N 51°07' E 001°19'0 0.0
2018-Jun-21 11:59N 51°07' E 001°19'0 0.0
2018-Jun-21 11:26N 51°07' E 001°19'0 0.0
2018-Jun-21 10:59N 51°07' E 001°19'0 0.0
2018-Jun-21 10:29N 51°07' E 001°19'0 0.0
2018-Jun-21 09:59N 51°07' E 001°19'0 0.0
2018-Jun-21 09:23N 51°07' E 001°19'0 0.0
2018-Jun-21 08:59N 51°07' E 001°19'0 0.0
2018-Jun-21 08:29N 51°07' E 001°19'0 0.0
2018-Jun-21 07:59N 51°07' E 001°19'0 0.0
2018-Jun-21 07:29N 51°07' E 001°19'0 0.0
2018-Jun-21 06:59N 51°07' E 001°19'0 0.0
2018-Jun-21 06:29N 51°07' E 001°19'0 0.0
2018-Jun-21 05:59N 51°07' E 001°19'0 0.0
2018-Jun-21 05:29N 51°07' E 001°19'0 0.0
2018-Jun-21 04:59N 51°07' E 001°19'2 4.2
2018-Jun-21 04:31N 51°08' E 001°22'4 7.2
2018-Jun-21 04:01N 51°04' E 001°19'611.8
2018-Jun-21 03:31N 51°00' E 001°13'611.9
2018-Jun-21 03:01N 50°56' E 001°06'510.8
2018-Jun-21 02:30N 50°53' E 000°60'510.5
2018-Jun-21 02:00N 50°50' E 000°53'5 9.3
2018-Jun-21 01:31N 50°47' E 000°47'5 9.6
2018-Jun-21 01:01N 50°44' E 000°40'5 9.6
2018-Jun-21 00:31N 50°42' E 000°34'5 9.4
2018-Jun-21 00:01N 50°40' E 000°27'510.0
2018-Jun-20 23:31N 50°39' E 000°20'610.2
2018-Jun-20 22:54N 50°38' E 000°10'4 9.9
2018-Jun-20 22:31N 50°37' E 000°04'510.7
2018-Jun-20 22:00N 50°36' W 000°04'711.5
2018-Jun-20 21:24N 50°34' W 000°15'410.9
2018-Jun-20 21:00N 50°33' W 000°21'611.2
2018-Jun-20 20:29N 50°31' W 000°30'511.0
2018-Jun-20 20:00N 50°30' W 000°38'510.4
2018-Jun-20 19:29N 50°28' W 000°46'2610.5
2018-Jun-20 17:00N 50°21' W 001°26'1711.9
2018-Jun-20 15:35N 50°18' W 001°52'114.0
2018-Jun-20 15:30N 50°18' W 001°53'2514.6
2018-Jun-20 13:50N 50°11' W 002°30'514.8
2018-Jun-20 13:30N 50°10' W 002°38'714.7
2018-Jun-20 13:00N 50°09' W 002°49'714.5
2018-Jun-20 12:31N 50°07' W 002°60'713.1
2018-Jun-20 12:00N 50°02' W 003°08'713.9
2018-Jun-20 11:31N 49°56' W 003°12'713.8
2018-Jun-20 11:00N 49°50' W 003°16'6912.7
2018-Jun-20 05:37N 49°10' W 004°42'311.5
2018-Jun-20 05:21N 49°08' W 004°46'411.3
2018-Jun-20 05:00N 49°06' W 004°51'511.1
2018-Jun-20 04:30N 49°03' W 004°58'510.6
2018-Jun-20 04:01N 48°60' W 005°05'510.8
2018-Jun-20 03:30N 48°57' W 005°11'510.0
2018-Jun-20 03:00N 48°54' W 005°18'611.7
2018-Jun-20 02:30N 48°51' W 005°25'611.8
2018-Jun-20 02:00N 48°47' W 005°33'711.8
2018-Jun-20 01:22N 48°41' W 005°39'412.2
2018-Jun-20 01:01N 48°37' W 005°42'612.7
2018-Jun-20 00:30N 48°32' W 005°47'55710.8
2018-Jun-17 20:51N 39°41' W 009°40'514.0
2018-Jun-17 20:29N 39°36' W 009°41'714.0
2018-Jun-17 20:00N 39°29' W 009°43'814.2
2018-Jun-17 19:28N 39°22' W 009°45'714.3
2018-Jun-17 18:59N 39°15' W 009°47'714.5
2018-Jun-17 18:30N 39°08' W 009°47'714.5
2018-Jun-17 18:01N 39°01' W 009°49'714.3
2018-Jun-17 17:31N 38°54' W 009°50'714.2
2018-Jun-17 17:00N 38°47' W 009°50'714.0
2018-Jun-17 16:30N 38°40' W 009°49'713.9
2018-Jun-17 16:00N 38°33' W 009°48'713.3
2018-Jun-17 15:31N 38°27' W 009°45'713.5
2018-Jun-17 15:00N 38°20' W 009°43'713.8
2018-Jun-17 14:30N 38°13' W 009°41'714.0
2018-Jun-17 14:00N 38°07' W 009°39'714.0
2018-Jun-17 13:30N 37°60' W 009°37'714.3
2018-Jun-17 13:00N 37°53' W 009°35'714.5
2018-Jun-17 12:31N 37°46' W 009°33'714.4
2018-Jun-17 12:00N 37°39' W 009°31'1114.5
2018-Jun-17 11:17N 37°29' W 009°27'415.2
2018-Jun-17 11:00N 37°25' W 009°25'915.1
2018-Jun-17 10:22N 37°15' W 009°23'615.0
2018-Jun-17 09:59N 37°10' W 009°21'714.8
2018-Jun-17 09:30N 37°03' W 009°20'1914.8
2018-Jun-17 08:12N 36°45' W 009°09'415.4
2018-Jun-17 07:57N 36°44' W 009°05'714.8
2018-Jun-17 07:30N 36°42' W 008°57'2015.6
2018-Jun-17 06:15N 36°36' W 008°34'415.3
2018-Jun-17 05:59N 36°35' W 008°29'816.2
2018-Jun-17 05:30N 36°32' W 008°20'12116.5
2018-Jun-16 22:10N 35°58' W 005°56'316.3
2018-Jun-16 22:00N 35°59' W 005°52'815.7
2018-Jun-16 21:30N 35°58' W 005°42'713.6
2018-Jun-16 21:00N 35°59' W 005°34'612.5
2018-Jun-16 20:30N 36°01' W 005°27'713.7
2018-Jun-16 20:00N 36°04' W 005°19'815.1
2018-Jun-16 19:30N 36°08' W 005°12'815.5
2018-Jun-16 19:00N 36°13' W 005°04'174 7.2
2018-Jun-15 18:55N 37°00' W 001°35'716.7
2018-Jun-15 18:30N 37°06' W 001°29'917.0
2018-Jun-15 18:00N 37°12' W 001°22'916.9
2018-Jun-15 17:30N 37°19' W 001°15'1116.8
2018-Jun-15 16:49N 37°27' W 001°06'516.4
2018-Jun-15 16:29N 37°32' W 001°02'3 0.3
2018-Jun-15 05:50N 37°34' W 000°59'3 9.3
2018-Jun-15 05:29N 37°32' W 000°55'612.0
2018-Jun-15 05:00N 37°32' W 000°48'612.4
2018-Jun-15 04:29N 37°33' W 000°40'612.2
2018-Jun-15 04:00N 37°35' W 000°33'612.8
2018-Jun-15 03:30N 37°40' W 000°28'612.9
2018-Jun-15 03:00N 37°45' W 000°23'612.9
2018-Jun-15 02:30N 37°50' W 000°18'612.4
2018-Jun-15 02:00N 37°54' W 000°12'712.3
2018-Jun-15 01:27N 37°59' W 000°06'612.6
2018-Jun-15 00:58N 38°04' W 000°01'611.6
2018-Jun-15 00:25N 38°08' E 000°05'614.9
2018-Jun-15 00:00N 38°13' E 000°10'815.8
2018-Jun-14 23:30N 38°19' E 000°17'815.7
2018-Jun-14 23:00N 38°24' E 000°24'15016.7
2018-Jun-14 14:01N 40°16' E 002°33'217.1
2018-Jun-14 13:54N 40°17' E 002°35'716.9
2018-Jun-14 13:30N 40°22' E 002°41'  
Track history (hours):
 
Tides and Currents Weather Stations Pressure Air Temp Water Temp Dewpoint Dewpoint Depression Visibility Wind Speed Wind Dir Waves Ship Positions

Boudicca

Last reported at 2018-Jun-23 20:59 UTC. Time now 2018-Jun-23 21:04 UTC.
Position N 54°20' E 010°09'.

Length 205 m; draft 7.5 m.

Type: Passenger vessel. MMSI: 309964000.

Date/timePositionNaut miles runAvg speedWind from/ knotsBaromVisibWave heightAir tempDewpointWater temp
2018-Jun-23 20:59N 54°20' E 010°09'0 0.0
2018-Jun-23 20:29N 54°20' E 010°09'0 0.0
2018-Jun-23 19:59N 54°20' E 010°09'0 0.0
2018-Jun-23 19:23N 54°20' E 010°09'0 0.0
2018-Jun-23 18:59N 54°20' E 010°09'0 0.0
2018-Jun-23 18:29N 54°20' E 010°09'0 0.0
2018-Jun-23 17:59N 54°20' E 010°09'0 0.0
2018-Jun-23 17:23N 54°20' E 010°09'0 0.0
2018-Jun-23 16:56N 54°20' E 010°09'29 2.2
2018-Jun-23 03:33N 54°09' E 009°23'0 8.5
2018-Jun-23 03:30N 54°09' E 009°22'3 6.5
2018-Jun-23 03:00N 54°06' E 009°20'4 8.3
2018-Jun-23 02:30N 54°02' E 009°18'4 7.7
2018-Jun-23 02:00N 53°58' E 009°16'4 7.1
2018-Jun-23 01:30N 53°56' E 009°12'3 5.9
2018-Jun-23 01:00N 53°54' E 009°09'0 0.2
2018-Jun-23 00:30N 53°54' E 009°09'2 4.9
2018-Jun-23 00:00N 53°53' E 009°05'5 9.6
2018-Jun-22 23:30N 53°51' E 008°57'612.6
2018-Jun-22 23:00N 53°51' E 008°47'712.5
2018-Jun-22 22:27N 53°56' E 008°40'713.1
2018-Jun-22 21:54N 53°59' E 008°28'89 8.4
2018-Jun-22 11:16N 53°41' E 005°60'310.6
2018-Jun-22 11:00N 53°40' E 005°56'510.5
2018-Jun-22 10:30N 53°38' E 005°47'510.4
2018-Jun-22 10:00N 53°36' E 005°39'510.1
2018-Jun-22 09:30N 53°34' E 005°31'5 9.7
2018-Jun-22 09:00N 53°33' E 005°23'5 9.6
2018-Jun-22 08:30N 53°31' E 005°16'5 9.5
2018-Jun-22 08:00N 53°30' E 005°08'611.6
2018-Jun-22 07:30N 53°27' E 004°59'713.8
2018-Jun-22 07:01N 53°25' E 004°48'712.1
2018-Jun-22 06:26N 53°20' E 004°40'511.6
2018-Jun-22 06:00N 53°16' E 004°35'510.7
2018-Jun-22 05:30N 53°11' E 004°32'611.4
2018-Jun-22 05:00N 53°06' E 004°26'611.1
2018-Jun-22 04:30N 53°02' E 004°21'4 8.5
2018-Jun-22 04:00N 52°58' E 004°18'3 6.6
2018-Jun-22 03:30N 52°55' E 004°16'4 7.5
2018-Jun-22 03:00N 52°51' E 004°14'9 8.5
2018-Jun-22 01:59N 52°45' E 004°05'5 9.6
2018-Jun-22 01:30N 52°41' E 003°59'510.3
2018-Jun-22 01:00N 52°37' E 003°54'611.0
2018-Jun-22 00:29N 52°33' E 003°48'611.8
2018-Jun-22 00:00N 52°29' E 003°41'612.2
2018-Jun-21 23:30N 52°25' E 003°34'612.7
2018-Jun-21 23:00N 52°20' E 003°27'4415.3
2018-Jun-21 20:07N 51°47' E 002°40'217.5
2018-Jun-21 19:59N 51°45' E 002°37'817.4
2018-Jun-21 19:30N 51°40' E 002°27'917.1
2018-Jun-21 19:00N 51°34' E 002°17'816.8
2018-Jun-21 18:30N 51°27' E 002°08'816.9
2018-Jun-21 18:01N 51°21' E 001°60'816.8
2018-Jun-21 17:30N 51°15' E 001°51'816.3
2018-Jun-21 17:00N 51°09' E 001°42'714.7
2018-Jun-21 16:31N 51°08' E 001°30'612.6
2018-Jun-21 16:00N 51°06' E 001°21'1 1.7
2018-Jun-21 15:29N 51°07' E 001°19'0 0.0
2018-Jun-21 14:59N 51°07' E 001°19'0 0.0
2018-Jun-21 14:26N 51°07' E 001°19'0 0.0
2018-Jun-21 13:59N 51°07' E 001°19'0 0.0
2018-Jun-21 13:29N 51°07' E 001°19'0 0.0
2018-Jun-21 12:59N 51°07' E 001°19'0 0.0
2018-Jun-21 12:29N 51°07' E 001°19'0 0.0
2018-Jun-21 11:59N 51°07' E 001°19'0 0.0
2018-Jun-21 11:26N 51°07' E 001°19'0 0.0
2018-Jun-21 10:59N 51°07' E 001°19'0 0.0
2018-Jun-21 10:29N 51°07' E 001°19'0 0.0
2018-Jun-21 09:59N 51°07' E 001°19'0 0.0
2018-Jun-21 09:23N 51°07' E 001°19'0 0.0
2018-Jun-21 08:59N 51°07' E 001°19'0 0.0
2018-Jun-21 08:29N 51°07' E 001°19'0 0.0
2018-Jun-21 07:59N 51°07' E 001°19'0 0.0
2018-Jun-21 07:29N 51°07' E 001°19'0 0.0
2018-Jun-21 06:59N 51°07' E 001°19'0 0.0
2018-Jun-21 06:29N 51°07' E 001°19'0 0.0
2018-Jun-21 05:59N 51°07' E 001°19'0 0.0
2018-Jun-21 05:29N 51°07' E 001°19'0 0.0
2018-Jun-21 04:59N 51°07' E 001°19'2 4.2
2018-Jun-21 04:31N 51°08' E 001°22'4 7.2
2018-Jun-21 04:01N 51°04' E 001°19'611.8
2018-Jun-21 03:31N 51°00' E 001°13'611.9
2018-Jun-21 03:01N 50°56' E 001°06'510.8
2018-Jun-21 02:30N 50°53' E 000°60'510.5
2018-Jun-21 02:00N 50°50' E 000°53'5 9.3
2018-Jun-21 01:31N 50°47' E 000°47'5 9.6
2018-Jun-21 01:01N 50°44' E 000°40'5 9.6
2018-Jun-21 00:31N 50°42' E 000°34'5 9.4
2018-Jun-21 00:01N 50°40' E 000°27'510.0
2018-Jun-20 23:31N 50°39' E 000°20'610.2
2018-Jun-20 22:54N 50°38' E 000°10'4 9.9
2018-Jun-20 22:31N 50°37' E 000°04'510.7
2018-Jun-20 22:00N 50°36' W 000°04'711.5
2018-Jun-20 21:24N 50°34' W 000°15'410.9
2018-Jun-20 21:00N 50°33' W 000°21'611.2
2018-Jun-20 20:29N 50°31' W 000°30'511.0
2018-Jun-20 20:00N 50°30' W 000°38'510.4
2018-Jun-20 19:29N 50°28' W 000°46'2610.5
2018-Jun-20 17:00N 50°21' W 001°26'1711.9
2018-Jun-20 15:35N 50°18' W 001°52'114.0
2018-Jun-20 15:30N 50°18' W 001°53'2514.6
2018-Jun-20 13:50N 50°11' W 002°30'514.8
2018-Jun-20 13:30N 50°10' W 002°38'714.7
2018-Jun-20 13:00N 50°09' W 002°49'714.5
2018-Jun-20 12:31N 50°07' W 002°60'713.1
2018-Jun-20 12:00N 50°02' W 003°08'713.9
2018-Jun-20 11:31N 49°56' W 003°12'713.8
2018-Jun-20 11:00N 49°50' W 003°16'6912.7
2018-Jun-20 05:37N 49°10' W 004°42'311.5
2018-Jun-20 05:21N 49°08' W 004°46'411.3
2018-Jun-20 05:00N 49°06' W 004°51'511.1
2018-Jun-20 04:30N 49°03' W 004°58'510.6
2018-Jun-20 04:01N 48°60' W 005°05'510.8
2018-Jun-20 03:30N 48°57' W 005°11'510.0
2018-Jun-20 03:00N 48°54' W 005°18'611.7
2018-Jun-20 02:30N 48°51' W 005°25'611.8
2018-Jun-20 02:00N 48°47' W 005°33'711.8
2018-Jun-20 01:22N 48°41' W 005°39'412.2
2018-Jun-20 01:01N 48°37' W 005°42'612.7
2018-Jun-20 00:30N 48°32' W 005°47'55710.8
2018-Jun-17 20:51N 39°41' W 009°40'514.0
2018-Jun-17 20:29N 39°36' W 009°41'714.0
2018-Jun-17 20:00N 39°29' W 009°43'814.2
2018-Jun-17 19:28N 39°22' W 009°45'714.3
2018-Jun-17 18:59N 39°15' W 009°47'714.5
2018-Jun-17 18:30N 39°08' W 009°47'714.5
2018-Jun-17 18:01N 39°01' W 009°49'714.3
2018-Jun-17 17:31N 38°54' W 009°50'714.2
2018-Jun-17 17:00N 38°47' W 009°50'714.0
2018-Jun-17 16:30N 38°40' W 009°49'713.9
2018-Jun-17 16:00N 38°33' W 009°48'713.3
2018-Jun-17 15:31N 38°27' W 009°45'713.5
2018-Jun-17 15:00N 38°20' W 009°43'713.8
2018-Jun-17 14:30N 38°13' W 009°41'714.0
2018-Jun-17 14:00N 38°07' W 009°39'714.0
2018-Jun-17 13:30N 37°60' W 009°37'714.3
2018-Jun-17 13:00N 37°53' W 009°35'714.5
2018-Jun-17 12:31N 37°46' W 009°33'714.4
2018-Jun-17 12:00N 37°39' W 009°31'1114.5
2018-Jun-17 11:17N 37°29' W 009°27'415.2
2018-Jun-17 11:00N 37°25' W 009°25'915.1
2018-Jun-17 10:22N 37°15' W 009°23'615.0
2018-Jun-17 09:59N 37°10' W 009°21'714.8
2018-Jun-17 09:30N 37°03' W 009°20'1914.8
2018-Jun-17 08:12N 36°45' W 009°09'415.4
2018-Jun-17 07:57N 36°44' W 009°05'714.8
2018-Jun-17 07:30N 36°42' W 008°57'2015.6
2018-Jun-17 06:15N 36°36' W 008°34'415.3
2018-Jun-17 05:59N 36°35' W 008°29'816.2
2018-Jun-17 05:30N 36°32' W 008°20'12116.5
2018-Jun-16 22:10N 35°58' W 005°56'316.3
2018-Jun-16 22:00N 35°59' W 005°52'815.7
2018-Jun-16 21:30N 35°58' W 005°42'713.6
2018-Jun-16 21:00N 35°59' W 005°34'612.5
2018-Jun-16 20:30N 36°01' W 005°27'713.7
2018-Jun-16 20:00N 36°04' W 005°19'815.1
2018-Jun-16 19:30N 36°08' W 005°12'815.5
2018-Jun-16 19:00N 36°13' W 005°04'174 7.2
2018-Jun-15 18:55N 37°00' W 001°35'716.7
2018-Jun-15 18:30N 37°06' W 001°29'917.0
2018-Jun-15 18:00N 37°12' W 001°22'916.9
2018-Jun-15 17:30N 37°19' W 001°15'1116.8
2018-Jun-15 16:49N 37°27' W 001°06'516.4
2018-Jun-15 16:29N 37°32' W 001°02'3 0.3
2018-Jun-15 05:50N 37°34' W 000°59'3 9.3
2018-Jun-15 05:29N 37°32' W 000°55'612.0
2018-Jun-15 05:00N 37°32' W 000°48'612.4
2018-Jun-15 04:29N 37°33' W 000°40'612.2
2018-Jun-15 04:00N 37°35' W 000°33'612.8
2018-Jun-15 03:30N 37°40' W 000°28'612.9
2018-Jun-15 03:00N 37°45' W 000°23'612.9
2018-Jun-15 02:30N 37°50' W 000°18'612.4
2018-Jun-15 02:00N 37°54' W 000°12'712.3
2018-Jun-15 01:27N 37°59' W 000°06'612.6
2018-Jun-15 00:58N 38°04' W 000°01'611.6
2018-Jun-15 00:25N 38°08' E 000°05'614.9
2018-Jun-15 00:00N 38°13' E 000°10'815.8
2018-Jun-14 23:30N 38°19' E 000°17'815.7
2018-Jun-14 23:00N 38°24' E 000°24'15016.7
2018-Jun-14 14:01N 40°16' E 002°33'217.1
2018-Jun-14 13:54N 40°17' E 002°35'716.9
2018-Jun-14 13:30N 40°22' E 002°41'  

Dump ship's entire track history